Bloomington, Wisconsin
Current Conditions -  °F | °C
As of 1:55 AM on Monday 22 Dec 2014 (Local Time) from KPDC Reporting Station
Overcast Overcast  
Wind Chill: 30°   Ceiling: 1300
Heat Index: 36°   Visibility: 7mi
Dew Point: 31°   Wind: 8mph
Humidity: 82%   Direction: 130°SE
Pressure: 29.85"   Gusts: NA
Location:  42.89°N, 90.92°W
Report Text: KPDC 220755Z AUTO 13007KT 7SM OVC013 02/00 A2985 RMK AO2 T00221005
Loading
Personal Weather Stations






























Interactive Weather Map New forecast layout! Learn more

10-Day Weather Forecast

Advertisements
Track Severe Weather on mobile